Time;durP1;ratioP1;P1;durP2;ratioP2;P2;SDS_P1;SDS_P2;PMS_P1;PMS_P2;Temp;Humidity;BMP_temperature;BMP_pressure;BME280_temperature;BME280_humidity;BME280_pressure;Samples;Min_cycle;Max_cycle;Signal;HPM_P1;HPM_P2
2023/05/07 00:01:22;;;;;;;10.78;6.37;;;;;;;3.15;62.84;100585.55;1681992;84;20968;-60
2023/05/07 00:03:48;;;;;;;8.73;4.90;;;;;;;3.19;62.74;100575.63;1678372;84;20998;-63
2023/05/07 00:06:15;;;;;;;13.68;5.92;;;;;;;3.25;62.97;100575.63;1677403;83;21099;-60
2023/05/07 00:08:41;;;;;;;17.52;5.60;;;;;;;3.29;62.73;100570.02;1677899;84;21007;-61
2023/05/07 00:11:08;;;;;;;14.68;6.10;;;;;;;3.33;62.77;100572.99;1679634;84;21285;-60
2023/05/07 00:13:35;;;;;;;11.05;5.78;;;;;;;3.36;62.86;100572.57;1649249;85;21096;-60
2023/05/07 00:16:05;;;;;;;17.85;6.25;;;;;;;3.42;62.89;100569.52;1626381;86;21017;-60
2023/05/07 00:18:31;;;;;;;11.93;5.30;;;;;;;3.43;62.80;100571.25;1628446;87;20981;-60
2023/05/07 00:21:05;;;;;;;10.15;4.90;;;;;;;3.44;62.81;100575.53;1627127;87;21104;-59
2023/05/07 00:23:26;;;;;;;7.72;5.47;;;;;;;3.42;62.69;100570.39;1599603;88;21053;-59
2023/05/07 00:25:54;;;;;;;9.98;5.53;;;;;;;3.39;62.76;100566.95;1636017;86;21051;-60
2023/05/07 00:28:22;;;;;;;9.48;4.62;;;;;;;3.34;62.90;100578.16;1637843;85;21047;-60
2023/05/07 00:30:52;;;;;;;6.92;5.00;;;;;;;3.33;62.87;100578.16;1618469;86;21684;-60
2023/05/07 00:33:26;;;;;;;9.53;5.35;;;;;;;3.33;63.06;100581.62;1640213;86;21047;-60
2023/05/07 00:35:49;;;;;;;9.88;4.75;;;;;;;3.35;63.30;100579.87;1684391;84;21129;-60
2023/05/07 00:38:21;;;;;;;11.45;4.72;;;;;;;3.42;63.15;100581.12;1666515;82;21612;-59
2023/05/07 00:40:51;;;;;;;7.78;5.00;;;;;;;3.42;63.42;100569.52;1683470;84;21157;-60
2023/05/07 00:43:19;;;;;;;8.05;5.00;;;;;;;3.53;63.27;100583.27;1679039;83;20952;-60
2023/05/07 00:45:45;;;;;;;7.90;4.90;;;;;;;3.53;63.31;100580.68;1684494;82;21030;-60
2023/05/07 00:48:15;;;;;;;8.18;5.05;;;;;;;3.54;63.41;100584.53;1687419;82;20956;-60
2023/05/07 00:50:39;;;;;;;8.60;4.97;;;;;;;3.54;63.49;100579.80;1688220;82;21062;-60
2023/05/07 00:53:07;;;;;;;12.75;4.90;;;;;;;3.59;63.69;100587.09;1691633;84;21435;-59
2023/05/07 00:55:35;;;;;;;7.60;4.78;;;;;;;3.62;63.58;100588.38;1690291;83;21038;-59
2023/05/07 00:58:02;;;;;;;12.00;5.20;;;;;;;3.59;63.59;100588.39;1670735;82;20970;-62
2023/05/07 01:00:28;;;;;;;7.75;4.75;;;;;;;3.57;63.59;100590.11;1669647;84;21114;-60
2023/05/07 01:02:55;;;;;;;9.70;5.00;;;;;;;3.55;63.69;100591.83;1689661;82;21010;-60
2023/05/07 01:05:24;;;;;;;7.50;4.70;;;;;;;3.54;63.73;100592.71;1685162;82;21015;-59
2023/05/07 01:07:53;;;;;;;8.90;4.83;;;;;;;3.47;63.57;100588.42;1685689;83;21010;-60
2023/05/07 01:10:22;;;;;;;9.08;5.50;;;;;;;3.40;63.76;100596.64;1688069;82;20932;-59
2023/05/07 01:12:51;;;;;;;11.33;5.10;;;;;;;3.36;63.83;100594.52;1691137;82;21029;-64
2023/05/07 01:15:18;;;;;;;9.75;4.60;;;;;;;3.38;63.94;100598.80;1690280;84;20971;-60
2023/05/07 01:17:45;;;;;;;9.60;4.87;;;;;;;3.36;63.85;100603.55;1687621;83;21058;-60
2023/05/07 01:20:12;;;;;;;6.47;4.72;;;;;;;3.35;64.01;100600.52;1691170;83;21912;-60
2023/05/07 01:22:38;;;;;;;11.38;5.62;;;;;;;3.36;64.00;100602.26;1690795;82;21010;-60
2023/05/07 01:25:09;;;;;;;8.50;4.58;;;;;;;3.38;64.14;100601.38;1686268;84;21088;-60
2023/05/07 01:27:39;;;;;;;8.18;4.60;;;;;;;3.41;64.22;100601.37;1685790;82;20979;-60
2023/05/07 01:30:07;;;;;;;9.95;4.67;;;;;;;3.45;64.27;100597.92;1690149;82;21014;-60
2023/05/07 01:32:51;;;;;;;;;;;;;;;3.46;64.37;100600.92;1686419;84;21097;-59
2023/05/07 01:35:24;;;;;;;6.33;4.53;;;;;;;3.47;64.50;100606.06;1686546;84;20222;-59
2023/05/07 01:37:51;;;;;;;11.68;4.80;;;;;;;3.46;64.57;100608.67;1686824;84;21679;-60
2023/05/07 01:40:18;;;;;;;11.83;5.78;;;;;;;3.49;64.47;100607.36;1686041;84;21069;-59
2023/05/07 01:42:46;;;;;;;12.73;4.70;;;;;;;3.48;64.40;100604.36;1684878;84;20975;-60
2023/05/07 01:45:12;;;;;;;13.58;5.10;;;;;;;3.48;64.39;100605.66;1684846;83;21042;-60
2023/05/07 01:47:39;;;;;;;7.33;5.00;;;;;;;3.48;64.44;100608.23;1683782;84;21129;-60
2023/05/07 01:50:09;;;;;;;8.88;4.03;;;;;;;3.48;64.29;100605.66;1684915;84;21022;-60
2023/05/07 01:52:38;;;;;;;9.13;4.83;;;;;;;3.49;64.53;100608.66;1683322;84;21004;-59
2023/05/07 01:55:06;;;;;;;14.80;4.95;;;;;;;3.52;64.50;100612.51;1683147;84;21047;-60
2023/05/07 01:57:32;;;;;;;10.43;4.90;;;;;;;3.55;64.64;100613.78;1686546;84;21101;-70
2023/05/07 01:59:59;;;;;;;10.72;4.40;;;;;;;3.58;64.62;100610.78;1679413;84;20972;-70
2023/05/07 02:02:27;;;;;;;10.65;5.40;;;;;;;3.62;64.51;100608.18;1684485;84;21071;-60
2023/05/07 02:04:55;;;;;;;9.43;4.30;;;;;;;3.61;64.47;100609.87;1683227;82;21651;-60
2023/05/07 02:07:29;;;;;;;7.03;4.55;;;;;;;3.62;64.44;100603.87;1687891;83;21070;-59
2023/05/07 02:09:55;;;;;;;9.83;4.42;;;;;;;3.49;64.00;100609.95;1684014;84;21027;-59
2023/05/07 02:12:24;;;;;;;6.17;4.30;;;;;;;3.28;63.90;100614.33;1677071;83;21082;-60
2023/05/07 02:14:52;;;;;;;10.48;4.40;;;;;;;3.09;64.14;100617.83;1686209;84;21082;-60
2023/05/07 02:17:19;;;;;;;8.08;4.70;;;;;;;3.07;64.69;100627.28;1684741;83;20956;-60
2023/05/07 02:19:52;;;;;;;12.30;4.80;;;;;;;3.13;64.85;100624.68;1682383;84;21601;-59
2023/05/07 02:22:20;;;;;;;8.85;4.85;;;;;;;3.16;64.66;100628.54;1684347;82;21022;-60
2023/05/07 02:24:46;;;;;;;6.30;4.22;;;;;;;3.14;64.65;100629.00;1682579;82;21470;-59
2023/05/07 02:27:13;;;;;;;7.83;5.10;;;;;;;3.16;64.74;100632.41;1682498;84;21451;-59
2023/05/07 02:29:39;;;;;;;7.37;4.05;;;;;;;3.16;64.80;100624.67;1687073;82;21049;-59
2023/05/07 02:32:05;;;;;;;8.68;4.30;;;;;;;3.17;64.83;100628.98;1682965;82;21023;-59
2023/05/07 02:34:31;;;;;;;6.25;4.17;;;;;;;3.19;64.88;100632.84;1661320;83;21069;-60
2023/05/07 02:36:58;;;;;;;10.05;4.53;;;;;;;3.21;64.83;100638.42;1663023;84;20956;-60
2023/05/07 02:39:25;;;;;;;8.88;4.20;;;;;;;3.21;64.67;100638.42;1686859;84;21628;-60
2023/05/07 02:41:53;;;;;;;11.90;4.50;;;;;;;3.10;64.43;100642.75;1682386;84;21479;-60
2023/05/07 02:44:20;;;;;;;6.95;4.67;;;;;;;2.97;64.65;100644.92;1683057;83;21030;-60
2023/05/07 02:46:46;;;;;;;6.60;4.13;;;;;;;2.94;64.99;100641.94;1684018;84;20940;-60
2023/05/07 02:49:12;;;;;;;10.95;3.95;;;;;;;2.95;64.95;100637.64;1684272;84;21039;-60
2023/05/07 02:51:39;;;;;;;11.10;4.72;;;;;;;2.90;64.78;100646.22;1689050;84;21462;-59
2023/05/07 02:54:05;;;;;;;10.10;3.95;;;;;;;2.83;64.99;100638.08;1692021;82;21022;-60
2023/05/07 02:56:31;;;;;;;7.17;4.58;;;;;;;2.84;65.24;100642.80;1685394;84;21066;-59
2023/05/07 02:58:58;;;;;;;8.98;4.55;;;;;;;2.88;65.21;100637.62;1684359;82;21094;-60
2023/05/07 03:01:24;;;;;;;7.35;4.87;;;;;;;2.91;65.25;100637.64;1684729;84;21573;-60
2023/05/07 03:03:50;;;;;;;9.73;4.87;;;;;;;2.92;65.17;100633.34;1680927;82;20937;-60
2023/05/07 03:06:17;;;;;;;8.05;4.70;;;;;;;2.88;65.11;100635.03;1681101;84;21006;-60
2023/05/07 03:08:43;;;;;;;9.58;4.65;;;;;;;2.84;65.06;100633.34;1683864;82;20972;-59
2023/05/07 03:11:09;;;;;;;11.10;4.25;;;;;;;2.76;65.06;100640.22;1682860;84;21081;-60
2023/05/07 03:13:36;;;;;;;5.28;4.30;;;;;;;2.72;65.11;100650.13;1686261;83;21319;-59
2023/05/07 03:16:02;;;;;;;10.88;4.60;;;;;;;2.67;65.25;100645.39;1685510;84;21015;-60
2023/05/07 03:18:28;;;;;;;7.50;4.70;;;;;;;2.69;65.30;100648.84;1684723;84;21506;-60
2023/05/07 03:20:55;;;;;;;10.90;4.55;;;;;;;2.70;65.36;100653.13;1683244;84;21593;-60
2023/05/07 03:23:21;;;;;;;5.70;3.72;;;;;;;2.74;65.42;100657.41;1686285;84;21462;-61
2023/05/07 03:25:47;;;;;;;23.18;8.95;;;;;;;2.75;65.39;100652.70;1692423;82;20967;-60
2023/05/07 03:28:14;;;;;;;21.45;9.38;;;;;;;2.76;65.51;100660.86;1690067;83;21034;-60
2023/05/07 03:30:40;;;;;;;17.02;7.47;;;;;;;2.85;65.66;100658.70;1688057;83;22339;-60
2023/05/07 03:33:06;;;;;;;12.65;5.67;;;;;;;2.91;65.57;100655.70;1695746;82;21015;-60
2023/05/07 03:35:32;;;;;;;9.83;5.03;;;;;;;2.96;65.59;100655.67;1692654;83;21011;-60
2023/05/07 03:38:03;;;;;;;10.58;6.00;;;;;;;3.02;65.62;100659.97;1684541;82;21415;-60
2023/05/07 03:40:27;;;;;;;8.75;4.33;;;;;;;3.10;65.77;100656.51;1687433;83;20990;-59
2023/05/07 03:42:54;;;;;;;7.67;3.92;;;;;;;3.17;65.68;100658.66;1690750;83;21191;-60
2023/05/07 03:45:20;;;;;;;6.65;3.80;;;;;;;3.24;65.65;100661.64;1687124;83;20991;-60
2023/05/07 03:47:48;;;;;;;7.80;4.53;;;;;;;3.28;65.72;100665.95;1689655;83;21478;-59
2023/05/07 03:50:14;;;;;;;6.97;4.80;;;;;;;3.34;65.70;100665.94;1685248;83;21046;-60
2023/05/07 03:52:40;;;;;;;7.60;3.95;;;;;;;3.44;65.78;100668.48;1690481;82;21141;-60
2023/05/07 03:55:08;;;;;;;6.28;4.12;;;;;;;3.49;65.76;100669.33;1689740;83;20995;-60
2023/05/07 03:57:34;;;;;;;9.08;4.30;;;;;;;3.57;65.77;100675.33;1690928;82;21045;-60
2023/05/07 04:00:01;;;;;;;7.87;4.15;;;;;;;3.64;65.70;100669.30;1685531;83;21102;-60
2023/05/07 04:02:30;;;;;;;9.25;4.00;;;;;;;3.71;65.78;100673.55;1689934;83;20963;-60
2023/05/07 04:04:57;;;;;;;6.80;3.70;;;;;;;3.89;65.98;100666.58;1688298;83;21502;-60
2023/05/07 04:07:23;;;;;;;13.22;4.62;;;;;;;4.07;65.92;100669.08;1686890;83;20971;-60
2023/05/07 04:09:49;;;;;;;6.45;3.80;;;;;;;4.15;65.90;100669.90;1686061;83;21090;-60
2023/05/07 04:12:17;;;;;;;8.63;3.52;;;;;;;4.27;65.83;100671.55;1687236;83;21094;-60
2023/05/07 04:14:43;;;;;;;10.48;4.45;;;;;;;4.36;65.73;100670.63;1680756;84;21026;-61
2023/05/07 04:17:10;;;;;;;7.03;3.77;;;;;;;4.47;65.78;100675.29;1689534;83;21000;-71
2023/05/07 04:19:38;;;;;;;7.72;4.80;;;;;;;4.55;65.70;100673.95;1690806;82;21058;-60
2023/05/07 04:22:06;;;;;;;7.72;4.60;;;;;;;4.66;65.79;100682.48;1665707;83;21058;-59
2023/05/07 04:24:33;;;;;;;6.83;3.83;;;;;;;4.77;65.72;100680.67;1686137;82;20941;-59
2023/05/07 04:26:59;;;;;;;6.35;3.80;;;;;;;4.83;65.73;100692.70;1663936;83;21115;-60
2023/05/07 04:29:25;;;;;;;5.67;3.83;;;;;;;4.94;65.88;100685.70;1662303;83;20979;-60
2023/05/07 04:31:52;;;;;;;7.05;3.85;;;;;;;5.09;65.83;100698.49;1686762;82;21026;-71
2023/05/07 04:34:18;;;;;;;12.78;3.80;;;;;;;5.25;65.86;100698.36;1690701;83;21007;-59
2023/05/07 04:36:44;;;;;;;7.00;4.85;;;;;;;5.39;65.81;100692.61;1686688;83;20987;-60
2023/05/07 04:39:12;;;;;;;9.20;4.10;;;;;;;5.54;65.86;100697.61;1692998;82;21078;-60
2023/05/07 04:41:38;;;;;;;;;;;;;;;5.66;65.79;100699.64;1651962;84;21052;-60
2023/05/07 04:44:04;;;;;;;7.85;3.95;;;;;;;5.77;65.83;100702.95;1685051;83;20150;-60
2023/05/07 04:46:31;;;;;;;7.22;3.92;;;;;;;5.87;65.79;100699.39;1682507;83;20963;-59
2023/05/07 04:48:57;;;;;;;6.65;4.15;;;;;;;5.95;65.77;100702.78;1679455;83;21057;-60
2023/05/07 04:51:23;;;;;;;10.08;3.65;;;;;;;6.05;65.85;100701.80;1680017;83;20987;-59
2023/05/07 04:53:50;;;;;;;5.10;3.22;;;;;;;6.23;66.19;100699.83;1681572;83;20971;-63
2023/05/07 04:56:16;;;;;;;6.58;3.40;;;;;;;6.39;65.93;100706.97;1682140;83;21138;-62
2023/05/07 04:58:43;;;;;;;6.12;3.40;;;;;;;6.53;65.76;100702.88;1636355;85;21019;-60
2023/05/07 05:01:09;;;;;;;7.33;3.72;;;;;;;6.63;65.80;100704.43;1677509;83;21008;-60
2023/05/07 05:03:35;;;;;;;7.97;3.33;;;;;;;6.78;65.85;100704.20;1681654;84;21577;-62
2023/05/07 05:06:02;;;;;;;8.03;3.33;;;;;;;7.00;65.80;100702.53;1680658;84;21011;-60
2023/05/07 05:08:36;;;;;;;5.85;3.60;;;;;;;7.11;65.61;100702.79;1678598;84;20979;-61
2023/05/07 05:11:02;;;;;;;6.60;2.98;;;;;;;7.28;65.50;100705.09;1684559;84;21030;-65
2023/05/07 05:13:28;;;;;;;7.78;3.15;;;;;;;7.49;65.53;100707.72;1680844;83;20966;-61
2023/05/07 05:15:54;;;;;;;4.83;3.47;;;;;;;7.66;65.46;100711.30;1682341;84;20984;-60
2023/05/07 05:18:26;;;;;;;6.47;3.70;;;;;;;7.88;65.28;100717.38;1678044;84;21502;-60
2023/05/07 05:20:52;;;;;;;7.03;3.70;;;;;;;8.05;64.62;100713.98;1681141;84;21572;-62
2023/05/07 05:23:18;;;;;;;5.50;3.45;;;;;;;8.17;64.68;100715.01;1685479;84;21067;-61
2023/05/07 05:25:45;;;;;;;4.83;2.95;;;;;;;8.35;64.01;100715.52;1685390;84;21022;-61
2023/05/07 05:28:11;;;;;;;4.00;2.80;;;;;;;8.49;63.43;100725.20;1680562;83;20971;-61
2023/05/07 05:30:40;;;;;;;6.05;3.08;;;;;;;8.62;63.46;100717.50;1679287;84;20972;-61
2023/05/07 05:33:07;;;;;;;4.92;2.42;;;;;;;8.76;63.29;100720.23;1669135;83;21102;-61
2023/05/07 05:35:35;;;;;;;5.40;2.58;;;;;;;8.89;62.08;100724.27;1692143;83;21212;-61
2023/05/07 05:38:02;;;;;;;7.62;2.52;;;;;;;8.99;62.08;100724.87;1699340;83;21009;-61
2023/05/07 05:40:28;;;;;;;3.92;2.52;;;;;;;9.08;61.92;100728.13;1687268;83;21042;-62
2023/05/07 05:42:55;;;;;;;8.53;3.08;;;;;;;9.20;61.07;100725.66;1685999;83;21022;-61
2023/05/07 05:45:21;;;;;;;8.50;2.83;;;;;;;9.31;59.04;100731.90;1694579;82;21032;-61
2023/05/07 05:47:47;;;;;;;5.42;2.47;;;;;;;9.43;58.01;100728.95;1694938;83;21601;-61
2023/05/07 05:50:14;;;;;;;7.08;3.02;;;;;;;9.63;59.11;100725.81;1690958;83;21129;-61
2023/05/07 05:52:40;;;;;;;5.72;2.75;;;;;;;9.62;58.22;100731.94;1690170;82;21084;-61
2023/05/07 05:55:08;;;;;;;6.70;3.20;;;;;;;9.58;56.41;100740.30;1691895;83;21074;-62
2023/05/07 05:57:35;;;;;;;5.90;3.35;;;;;;;9.56;57.23;100743.39;1695127;83;21054;-61
2023/05/07 06:00:02;;;;;;;6.77;3.10;;;;;;;9.59;58.03;100725.05;1696158;83;21067;-62
2023/05/07 06:02:29;;;;;;;9.53;3.25;;;;;;;9.71;58.30;100728.22;1697018;83;21010;-61
2023/05/07 06:04:55;;;;;;;;;;;;;;;9.84;57.41;100726.98;1696730;83;21061;-61
2023/05/07 06:07:22;;;;;;;6.35;3.33;;;;;;;9.91;53.46;100740.70;1694337;83;20171;-62
2023/05/07 06:09:48;;;;;;;4.50;3.27;;;;;;;9.92;57.28;100741.97;1687986;83;20968;-61
2023/05/07 06:12:15;;;;;;;4.03;2.90;;;;;;;9.98;56.15;100745.70;1691156;83;21137;-61
2023/05/07 06:14:43;;;;;;;5.37;3.07;;;;;;;10.11;56.14;100750.56;1694855;82;21101;-61
2023/05/07 06:17:09;;;;;;;5.72;4.33;;;;;;;10.12;56.46;100727.50;1694677;83;21014;-61
2023/05/07 06:19:36;;;;;;;6.97;3.50;;;;;;;10.27;56.63;100744.03;1694443;83;21039;-61
2023/05/07 06:22:02;;;;;;;7.10;3.80;;;;;;;10.34;55.65;100745.57;1692538;83;20947;-61
2023/05/07 06:24:29;;;;;;;10.00;3.52;;;;;;;10.42;55.42;100755.34;1687795;83;21011;-61
2023/05/07 06:26:55;;;;;;;6.53;3.80;;;;;;;10.56;56.29;100752.73;1688561;83;21026;-61
2023/05/07 06:29:22;;;;;;;5.40;2.75;;;;;;;10.72;53.72;100751.36;1691269;82;20955;-61
2023/05/07 06:31:48;;;;;;;5.23;3.23;;;;;;;10.84;56.12;100745.77;1687480;83;21030;-61
2023/05/07 06:34:16;;;;;;;3.90;2.47;;;;;;;11.01;56.43;100750.88;1684260;83;21564;-62
2023/05/07 06:36:43;;;;;;;3.27;2.25;;;;;;;11.42;54.03;100734.66;1684553;83;21030;-61
2023/05/07 06:39:09;;;;;;;6.67;2.22;;;;;;;11.42;54.03;100734.66;1687043;83;21050;-61
2023/05/07 06:41:35;;;;;;;3.80;2.22;;;;;;;11.81;52.34;100758.16;1686045;83;21030;-61
2023/05/07 06:44:03;;;;;;;4.17;2.50;;;;;;;12.06;55.23;100756.85;1683874;83;21474;-62
2023/05/07 06:46:29;;;;;;;;;;;;;;;12.25;55.05;100756.56;1689193;82;20991;-62
2023/05/07 06:48:56;;;;;;;2.40;2.05;;;;;;;12.78;53.05;100755.87;1685473;83;20166;-61
2023/05/07 06:51:23;;;;;;;;;;;;;;;13.30;51.27;100761.61;1687872;83;20986;-61
2023/05/07 06:53:49;;;;;;;8.10;2.17;;;;;;;13.71;50.43;100745.87;1691094;83;20470;-61
2023/05/07 06:56:15;;;;;;;5.23;2.20;;;;;;;14.16;52.99;100753.92;1683976;83;21081;-61
2023/05/07 06:58:43;;;;;;;3.60;1.82;;;;;;;14.68;52.37;100750.22;1684767;83;21470;-62
2023/05/07 07:01:10;;;;;;;2.37;2.08;;;;;;;15.15;50.95;100750.53;1687183;83;21026;-62
2023/05/07 07:03:37;;;;;;;3.30;2.35;;;;;;;15.49;43.12;100751.89;1683939;83;21486;-61
2023/05/07 07:06:09;;;;;;;4.08;2.25;;;;;;;15.67;47.36;100756.22;1690019;83;21030;-62
2023/05/07 07:08:38;;;;;;;3.42;2.10;;;;;;;16.18;48.25;100755.72;1682571;83;21047;-62
2023/05/07 07:11:06;;;;;;;8.43;1.80;;;;;;;16.56;45.66;100752.31;1685986;83;21046;-63
2023/05/07 07:13:40;;;;;;;3.33;2.00;;;;;;;17.29;48.39;100753.50;1683793;83;21053;-62
2023/05/07 07:16:05;;;;;;;2.67;1.92;;;;;;;17.90;38.13;100745.88;1694546;83;21046;-63
2023/05/07 07:18:35;;;;;;;3.52;2.08;;;;;;;18.20;43.36;100751.52;1686870;83;21545;-63
2023/05/07 07:21:02;;;;;;;5.75;2.02;;;;;;;18.84;41.47;100751.87;1660707;82;21537;-63
2023/05/07 07:23:32;;;;;;;6.65;2.27;;;;;;;19.69;42.73;100753.23;1684934;83;21442;-63
2023/05/07 07:25:59;;;;;;;5.55;1.95;;;;;;;20.50;42.64;100754.57;1683972;83;20995;-63
2023/05/07 07:28:26;;;;;;;4.50;2.35;;;;;;;21.08;41.78;100745.00;1687966;83;20999;-63
2023/05/07 07:30:52;;;;;;;3.90;2.00;;;;;;;21.62;40.95;100747.12;1688393;83;21605;-63
2023/05/07 07:33:18;;;;;;;3.17;2.00;;;;;;;22.20;37.35;100749.69;1696522;82;21061;-63
2023/05/07 07:35:48;;;;;;;5.87;2.40;;;;;;;22.45;37.80;100741.92;1687827;83;21075;-67
2023/05/07 07:38:13;;;;;;;13.78;2.47;;;;;;;22.69;36.59;100736.92;1687867;83;21042;-64
2023/05/07 07:40:40;;;;;;;4.70;2.10;;;;;;;23.35;37.08;100746.92;1687788;83;21560;-64
2023/05/07 07:43:06;;;;;;;4.37;1.70;;;;;;;23.53;34.88;100753.86;1687593;83;21161;-64
2023/05/07 07:45:39;;;;;;;2.33;1.70;;;;;;;23.38;28.71;100766.64;1686709;83;21115;-64
2023/05/07 07:48:04;;;;;;;4.97;1.67;;;;;;;23.48;33.91;100747.23;1690681;83;21070;-64
2023/05/07 07:50:30;;;;;;;3.25;1.67;;;;;;;23.89;33.11;100749.03;1693353;83;21073;-64
2023/05/07 07:52:58;;;;;;;4.87;1.55;;;;;;;24.19;29.23;100740.14;1687963;83;21514;-64
2023/05/07 07:55:26;;;;;;;2.95;1.52;;;;;;;24.52;29.72;100751.50;1689850;82;21089;-63
2023/05/07 07:57:52;;;;;;;2.70;1.40;;;;;;;24.59;31.90;100741.97;1690158;83;21042;-64
2023/05/07 08:00:20;;;;;;;6.03;1.90;;;;;;;24.54;29.13;100760.22;1687414;83;21014;-64
2023/05/07 08:02:46;;;;;;;2.92;1.52;;;;;;;24.82;27.22;100753.23;1690781;83;21022;-64
2023/05/07 08:05:12;;;;;;;2.60;1.72;;;;;;;24.93;30.19;100760.27;1688036;82;22119;-64
2023/05/07 08:07:46;;;;;;;7.65;1.47;;;;;;;24.82;27.48;100768.42;1689085;83;21514;-64
2023/05/07 08:10:12;;;;;;;12.55;1.60;;;;;;;24.87;29.62;100763.48;1693095;82;21077;-63
2023/05/07 08:12:42;;;;;;;4.22;1.70;;;;;;;24.25;23.41;100771.61;1691985;83;21517;-64
2023/05/07 08:15:08;;;;;;;4.35;1.37;;;;;;;23.81;26.53;100768.36;1689619;83;21003;-64
2023/05/07 08:17:37;;;;;;;6.20;1.50;;;;;;;23.78;28.07;100767.30;1691466;82;21074;-62
2023/05/07 08:20:04;;;;;;;3.25;1.32;;;;;;;24.10;23.59;100774.31;1690625;83;21018;-63
2023/05/07 08:22:31;;;;;;;5.03;1.98;;;;;;;23.83;23.20;100774.38;1690820;83;21058;-62
2023/05/07 08:24:57;;;;;;;3.45;1.20;;;;;;;23.64;25.48;100775.60;1692672;82;21042;-62
2023/05/07 08:27:23;;;;;;;3.80;1.35;;;;;;;23.62;26.72;100752.22;1692946;82;21014;-63
2023/05/07 08:29:49;;;;;;;2.75;1.20;;;;;;;23.75;25.45;100770.69;1694328;83;20995;-63
2023/05/07 08:32:18;;;;;;;1.75;1.07;;;;;;;23.75;25.45;100770.69;1691586;83;21069;-61
2023/05/07 08:34:48;;;;;;;3.65;1.30;;;;;;;23.52;25.33;100764.63;1666426;83;21070;-63
2023/05/07 08:37:15;;;;;;;5.10;1.07;;;;;;;23.45;24.72;100783.82;1690842;82;21050;-62
2023/05/07 08:39:41;;;;;;;4.30;1.50;;;;;;;24.03;25.58;100757.13;1683421;83;21037;-63
2023/05/07 08:42:11;;;;;;;5.03;1.25;;;;;;;24.48;24.13;100774.12;1689631;83;21026;-63
2023/05/07 08:44:39;;;;;;;2.30;1.07;;;;;;;24.12;24.16;100760.35;1688005;82;21034;-63
2023/05/07 08:47:07;;;;;;;1.70;1.27;;;;;;;23.74;21.77;100785.84;1690974;83;20991;-62
2023/05/07 08:49:35;;;;;;;3.05;1.12;;;;;;;23.07;22.27;100779.52;1691120;83;21485;-63
2023/05/07 08:52:02;;;;;;;3.08;1.22;;;;;;;22.74;22.42;100769.30;1690750;83;21093;-62
2023/05/07 08:54:31;;;;;;;8.75;1.47;;;;;;;22.09;21.57;100801.05;1668095;83;21030;-63
2023/05/07 08:56:59;;;;;;;2.70;1.22;;;;;;;22.07;21.87;100781.72;1689763;83;21591;-63
2023/05/07 08:59:26;;;;;;;1.50;1.00;;;;;;;22.41;22.24;100779.08;1687417;82;21517;-63
2023/05/07 09:01:52;;;;;;;3.22;1.32;;;;;;;22.29;21.88;100783.56;1695170;83;21541;-62
2023/05/07 09:04:22;;;;;;;3.45;1.00;;;;;;;22.21;21.13;100790.44;1690159;83;21030;-62
2023/05/07 09:06:51;;;;;;;1.62;1.00;;;;;;;22.54;21.34;100797.05;1694416;83;21044;-62
2023/05/07 09:09:19;;;;;;;4.03;1.35;;;;;;;23.19;21.50;100777.16;1688292;83;20991;-61
2023/05/07 09:11:45;;;;;;;5.25;1.20;;;;;;;22.59;20.53;100781.22;1690466;82;21620;-62
2023/05/07 09:14:13;;;;;;;5.28;1.20;;;;;;;21.94;21.23;100787.63;1697760;82;20995;-62
2023/05/07 09:16:41;;;;;;;4.47;2.65;;;;;;;22.17;20.28;100796.95;1665824;83;21055;-62
2023/05/07 09:19:09;;;;;;;3.92;1.12;;;;;;;22.99;21.52;100779.69;1691066;82;21581;-61
2023/05/07 09:21:38;;;;;;;8.83;1.47;;;;;;;23.90;20.06;100783.55;1661102;83;21118;-62
2023/05/07 09:24:07;;;;;;;3.52;1.35;;;;;;;23.64;20.71;100786.27;1689815;82;21534;-62
2023/05/07 09:26:34;;;;;;;6.25;1.37;;;;;;;23.81;20.89;100791.02;1691877;82;20975;-62
2023/05/07 09:29:01;;;;;;;2.60;1.42;;;;;;;24.27;20.44;100788.84;1689516;83;20975;-62
2023/05/07 09:31:34;;;;;;;1.80;0.98;;;;;;;23.37;19.95;100780.95;1695398;82;21038;-61
2023/05/07 09:34:01;;;;;;;3.08;1.32;;;;;;;23.89;20.73;100760.55;1689372;83;21184;-62
2023/05/07 09:36:28;;;;;;;4.37;1.40;;;;;;;23.77;18.83;100778.92;1693621;83;21086;-62
2023/05/07 09:38:56;;;;;;;5.22;1.12;;;;;;;24.70;18.46;100768.55;1686383;83;21065;-64
2023/05/07 09:41:23;;;;;;;2.33;1.40;;;;;;;25.54;18.46;100797.38;1696410;82;20963;-62
2023/05/07 09:43:55;;;;;;;2.35;1.55;;;;;;;25.91;18.97;100785.94;1692268;83;21073;-61
2023/05/07 09:46:28;;;;;;;3.62;1.30;;;;;;;25.83;18.87;100780.47;1688830;82;21085;-63
2023/05/07 09:49:01;;;;;;;2.37;1.20;;;;;;;25.75;18.34;100804.39;1692717;83;21140;-62
2023/05/07 09:51:50;;;;;;;2.47;1.32;;;;;;;26.02;18.97;100791.58;1691376;82;21018;-61
2023/05/07 09:54:14;;;;;;;3.00;1.25;;;;;;;26.00;18.99;100782.37;1692998;82;21121;-63
2023/05/07 09:56:42;;;;;;;1.27;1.17;;;;;;;26.78;19.28;100776.64;1690043;82;20959;-67
2023/05/07 09:59:14;;;;;;;1.47;1.12;;;;;;;26.09;18.99;100770.78;1693299;82;21081;-60
2023/05/07 10:01:47;;;;;;;3.98;1.55;;;;;;;25.16;18.33;100777.73;1687912;83;21030;-63
2023/05/07 10:04:14;;;;;;;2.10;1.27;;;;;;;24.71;17.74;100791.59;1686911;83;21062;-61
2023/05/07 10:06:41;;;;;;;4.20;1.20;;;;;;;25.93;19.15;100778.59;1688045;83;21546;-61
2023/05/07 10:09:08;;;;;;;3.42;1.77;;;;;;;27.03;18.23;100763.45;1689287;83;21525;-66
2023/05/07 10:11:37;;;;;;;3.33;1.45;;;;;;;25.82;18.21;100797.45;1695351;83;21078;-61
2023/05/07 10:14:07;;;;;;;3.33;1.85;;;;;;;26.36;19.10;100790.53;1689783;82;21062;-62
2023/05/07 10:16:36;;;;;;;4.30;1.50;;;;;;;27.31;18.63;100764.21;1688156;83;21081;-62
2023/05/07 10:19:06;;;;;;;2.55;1.20;;;;;;;27.04;17.44;100789.27;1690186;83;21090;-62
2023/05/07 10:21:37;;;;;;;5.08;1.30;;;;;;;27.06;18.43;100777.91;1689166;83;21010;-60
2023/05/07 10:24:17;;;;;;;3.05;1.22;;;;;;;26.68;18.03;100774.01;1688504;83;20939;-63
2023/05/07 10:26:44;;;;;;;2.90;1.90;;;;;;;26.54;17.49;100780.72;1686261;83;21075;-62
2023/05/07 10:29:16;;;;;;;6.15;1.37;;;;;;;26.85;17.75;100779.03;1687363;83;20998;-62
2023/05/07 10:32:15;;;;;;;3.72;1.37;;;;;;;26.88;17.53;100763.98;1686761;83;21099;-60
2023/05/07 10:34:51;;;;;;;2.55;1.32;;;;;;;25.37;17.19;100771.38;1687991;83;21494;-61
2023/05/07 10:37:18;;;;;;;3.02;1.20;;;;;;;24.24;18.00;100763.76;1691057;83;21677;-60
2023/05/07 10:39:45;;;;;;;5.95;1.60;;;;;;;25.37;18.46;100776.72;1691025;83;21019;-62
2023/05/07 10:42:16;;;;;;;2.08;1.30;;;;;;;27.19;18.26;100775.69;1687369;83;21013;-62
2023/05/07 10:44:42;;;;;;;2.62;1.32;;;;;;;28.02;17.13;100772.59;1688209;83;21019;-62
2023/05/07 10:47:11;;;;;;;5.12;1.50;;;;;;;28.86;17.29;100764.15;1697863;82;21003;-62
2023/05/07 10:49:43;;;;;;;5.72;1.80;;;;;;;28.25;16.60;100775.03;1687979;83;21559;-62
2023/05/07 10:52:19;;;;;;;2.22;1.27;;;;;;;28.13;16.98;100762.91;1685426;83;21022;-61
2023/05/07 10:54:46;;;;;;;6.37;1.53;;;;;;;28.57;16.30;100776.20;1688921;83;20979;-61
2023/05/07 10:57:32;;;;;;;2.15;1.10;;;;;;;28.92;15.78;100776.92;1688598;83;21039;-62
2023/05/07 10:59:59;;;;;;;2.35;1.35;;;;;;;29.37;16.28;100780.98;1689673;83;20999;-62
2023/05/07 11:03:04;;;;;;;1.85;1.20;;;;;;;29.75;17.03;100773.25;1687764;83;20991;-63
2023/05/07 11:05:33;;;;;;;4.65;1.60;;;;;;;30.45;17.43;100759.86;1684560;83;21015;-63
2023/05/07 11:08:04;;;;;;;3.85;2.00;;;;;;;30.39;16.00;100765.96;1695907;83;21605;-62
2023/05/07 11:10:51;;;;;;;2.60;1.20;;;;;;;29.76;16.16;100773.56;1692563;82;21041;-62
2023/05/07 11:13:21;;;;;;;2.98;1.30;;;;;;;28.59;16.38;100771.48;1682288;83;21105;-62
2023/05/07 11:15:48;;;;;;;3.30;1.40;;;;;;;27.95;16.55;100778.24;1688448;83;21011;-62
2023/05/07 11:18:16;;;;;;;7.90;1.70;;;;;;;28.28;16.62;100766.64;1690281;83;21030;-62
2023/05/07 11:20:54;;;;;;;2.60;1.25;;;;;;;28.83;16.17;100777.92;1692121;83;21438;-62
2023/05/07 11:23:38;;;;;;;7.22;1.90;;;;;;;27.20;16.08;100761.30;1689203;83;21594;-63
2023/05/07 11:26:06;;;;;;;4.53;1.30;;;;;;;25.52;16.13;100788.67;1688543;83;21006;-64
2023/05/07 11:28:39;;;;;;;2.90;1.50;;;;;;;25.74;16.99;100781.29;1686930;83;20964;-63
2023/05/07 11:31:07;;;;;;;5.15;1.90;;;;;;;26.23;16.47;100786.02;1689469;83;21013;-63
2023/05/07 11:33:35;;;;;;;3.10;1.77;;;;;;;26.19;16.45;100785.98;1688565;83;21038;-63